Time;durP1;ratioP1;P1;durP2;ratioP2;P2;SDS_P1;SDS_P2;PMS_P1;PMS_P2;Temp;Humidity;BMP_temperature;BMP_pressure;BME280_temperature;BME280_humidity;BME280_pressure;Samples;Min_cycle;Max_cycle;Signal;HPM_P1;HPM_P2
2023/06/06 00:01:05;;;;;;;;;;;10.00;99.90;;;;;;6124202;23;20001;-71
2023/06/06 00:03:31;;;;;;;;;;;10.00;99.90;;;;;;6123278;23;20384;-70
2023/06/06 00:06:00;;;;;;;;;;;10.00;99.90;;;;;;6123402;23;19921;-70
2023/06/06 00:08:28;;;;;;;;;;;10.00;99.90;;;;;;6123752;23;19928;-71
2023/06/06 00:10:54;;;;;;;;;;;9.90;99.90;;;;;;6124485;23;19928;-71
2023/06/06 00:13:20;;;;;;;;;;;9.90;99.90;;;;;;6126114;23;19921;-71
2023/06/06 00:15:46;;;;;;;;;;;9.90;99.90;;;;;;6124431;23;19927;-72
2023/06/06 00:18:11;;;;;;;;;;;9.90;99.90;;;;;;6122671;23;19996;-72
2023/06/06 00:20:38;;;;;;;;;;;9.90;99.90;;;;;;6124621;23;20614;-70
2023/06/06 00:23:04;;;;;;;;;;;9.90;99.90;;;;;;6123994;23;19917;-69
2023/06/06 00:25:30;;;;;;;;;;;9.80;99.90;;;;;;6124991;23;20337;-69
2023/06/06 00:27:58;;;;;;;;;;;9.80;99.90;;;;;;6123868;23;19923;-70
2023/06/06 00:30:24;;;;;;;;;;;9.80;99.90;;;;;;6123615;23;19921;-69
2023/06/06 00:32:49;;;;;;;;;;;9.80;99.90;;;;;;6125743;23;20160;-70
2023/06/06 00:35:15;;;;;;;;;;;9.80;99.90;;;;;;6126350;23;19921;-69
2023/06/06 00:37:40;;;;;;;;;;;9.70;99.90;;;;;;6123249;23;20285;-70
2023/06/06 00:40:06;;;;;;;;;;;9.80;99.90;;;;;;6124427;23;20401;-70
2023/06/06 00:42:32;;;;;;;;;;;9.70;99.90;;;;;;6126142;23;20004;-71
2023/06/06 00:44:58;;;;;;;;;;;10.90;99.90;;;;;;6123843;23;19924;-69
2023/06/06 00:47:23;;;;;;;;;;;9.70;99.90;;;;;;6124056;23;19968;-72
2023/06/06 00:49:49;;;;;;;;;;;9.80;99.90;;;;;;6123861;23;20325;-70
2023/06/06 00:52:15;;;;;;;;;;;9.70;99.90;;;;;;6123274;23;19936;-69
2023/06/06 00:54:42;;;;;;;;;;;9.70;99.90;;;;;;6124068;23;19949;-69
2023/06/06 00:57:08;;;;;;;;;;;9.70;99.90;;;;;;6123785;23;20262;-69
2023/06/06 00:59:34;;;;;;;;;;;9.80;99.90;;;;;;6123347;23;19936;-70
2023/06/06 01:02:04;;;;;;;;;;;9.80;99.90;;;;;;6125602;23;19917;-70
2023/06/06 01:04:29;;;;;;;;;;;9.80;99.90;;;;;;6123581;23;19921;-70
2023/06/06 01:06:55;;;;;;;;;;;9.90;99.90;;;;;;6124802;23;19921;-70
2023/06/06 01:09:23;;;;;;;;;;;9.90;99.90;;;;;;6123776;23;20258;-70
2023/06/06 01:11:58;;;;;;;;;;;9.80;99.90;;;;;;6126615;23;19921;-70
2023/06/06 01:14:27;;;;;;;;;;;9.80;99.90;;;;;;6126779;23;19928;-69
2023/06/06 01:16:57;;;;;;;;;;;9.80;99.90;;;;;;6127308;23;19921;-72
2023/06/06 01:19:33;;;;;;;;;;;9.80;99.90;;;;;;6125417;23;19921;-72
2023/06/06 01:21:59;;;;;;;;;;;9.90;99.90;;;;;;6125432;23;20231;-72
2023/06/06 01:24:27;;;;;;;;;;;9.90;99.90;;;;;;6125661;23;19948;-71
2023/06/06 01:26:52;;;;;;;;;;;10.10;99.90;;;;;;6124617;23;19925;-70
2023/06/06 01:29:18;;;;;;;;;;;10.10;99.90;;;;;;6125670;23;19976;-69
2023/06/06 01:31:54;;;;;;;;;;;10.10;99.90;;;;;;6126012;23;19959;-71
2023/06/06 01:34:42;;;;;;;;;;;10.10;99.90;;;;;;6126569;23;19921;-70
2023/06/06 01:37:14;;;;;;;;;;;10.00;99.90;;;;;;6125147;23;20212;-70
2023/06/06 01:39:43;;;;;;;;;;;10.00;99.90;;;;;;6125570;23;19971;-70
2023/06/06 01:42:09;;;;;;;;;;;10.00;99.90;;;;;;6126307;23;19921;-70
2023/06/06 01:44:36;;;;;;;;;;;10.00;99.90;;;;;;6128143;23;19972;-69
2023/06/06 01:47:02;;;;;;;;;;;10.00;99.90;;;;;;6129892;23;19925;-70
2023/06/06 01:49:28;;;;;;;;;;;9.90;99.90;;;;;;6129593;23;19975;-70
2023/06/06 01:51:54;;;;;;;;;;;10.00;99.90;;;;;;6156444;23;19924;-70
2023/06/06 01:54:20;;;;;;;;;;;10.00;99.90;;;;;;6156752;23;19920;-70
2023/06/06 01:56:45;;;;;;;;;;;10.20;99.90;;;;;;6129138;23;19921;-70
2023/06/06 01:59:11;;;;;;;;;;;10.10;99.90;;;;;;6156484;23;19931;-70
2023/06/06 02:01:36;;;;;;;;;;;10.10;99.90;;;;;;6156093;23;19963;-71
2023/06/06 02:04:02;;;;;;;;;;;10.20;99.90;;;;;;6129841;23;19928;-70
2023/06/06 02:06:28;;;;;;;;;;;10.20;99.90;;;;;;6156695;23;19920;-70
2023/06/06 02:08:53;;;;;;;;;;;10.20;99.90;;;;;;6129139;23;20333;-70
2023/06/06 02:11:22;;;;;;;;;;;10.70;99.90;;;;;;6130572;23;19992;-70
2023/06/06 02:13:48;;;;;;;;;;;10.20;99.90;;;;;;6156480;23;19928;-70
2023/06/06 02:16:16;;;;;;;;;;;10.20;99.90;;;;;;6129623;23;19936;-70
2023/06/06 02:18:44;;;;;;;;;;;10.30;99.90;;;;;;6156892;23;20293;-70
2023/06/06 02:21:12;;;;;;;;;;;10.30;99.90;;;;;;6130482;23;20004;-70
2023/06/06 02:23:38;;;;;;;;;;;10.30;99.90;;;;;;6130357;23;19952;-71
2023/06/06 02:26:04;;;;;;;;;;;10.30;99.90;;;;;;6159443;23;20044;-70
2023/06/06 02:28:30;;;;;;;;;;;10.30;99.90;;;;;;6159492;23;20016;-70
2023/06/06 02:30:56;;;;;;;;;;;10.30;99.90;;;;;;6128858;23;19920;-71
2023/06/06 02:33:21;;;;;;;;;;;10.40;99.90;;;;;;6130770;23;20369;-71
2023/06/06 02:35:47;;;;;;;;;;;10.30;99.90;;;;;;6130202;23;19947;-71
2023/06/06 02:38:12;;;;;;;;;;;10.40;99.90;;;;;;6155685;23;19920;-70
2023/06/06 02:40:38;;;;;;;;;;;10.40;99.90;;;;;;6130320;23;19967;-70
2023/06/06 02:43:04;;;;;;;;;;;10.50;99.90;;;;;;6129794;23;19925;-70
2023/06/06 02:45:30;;;;;;;;;;;10.50;99.90;;;;;;6143951;23;19927;-70
2023/06/06 02:47:56;;;;;;;;;;;10.50;99.90;;;;;;6126606;23;19996;-70
2023/06/06 02:50:21;;;;;;;;;;;10.70;99.90;;;;;;6126697;23;19991;-70
2023/06/06 02:52:47;;;;;;;;;;;10.60;99.90;;;;;;6124132;23;19929;-70
2023/06/06 02:55:13;;;;;;;;;;;10.80;99.90;;;;;;6126413;23;19928;-70
2023/06/06 02:57:38;;;;;;;;;;;10.70;99.90;;;;;;6126696;23;19925;-70
2023/06/06 03:00:07;;;;;;;;;;;10.70;99.90;;;;;;6123408;23;20004;-70
2023/06/06 03:02:33;;;;;;;;;;;10.70;99.90;;;;;;6124656;23;19963;-70
2023/06/06 03:04:59;;;;;;;;;;;10.70;99.90;;;;;;6123324;23;19961;-71
2023/06/06 03:07:26;;;;;;;;;;;12.10;99.90;;;;;;6124739;23;19953;-70
2023/06/06 03:09:51;;;;;;;;;;;10.80;99.90;;;;;;6126090;23;19925;-70
2023/06/06 03:12:20;;;;;;;;;;;10.70;99.90;;;;;;6123700;23;20334;-70
2023/06/06 03:14:46;;;;;;;;;;;10.60;99.90;;;;;;6126801;23;19927;-70
2023/06/06 03:17:11;;;;;;;;;;;10.60;99.90;;;;;;6124304;23;19960;-70
2023/06/06 03:19:37;;;;;;;;;;;10.60;99.90;;;;;;6125504;23;19928;-70
2023/06/06 03:22:03;;;;;;;;;;;10.60;99.90;;;;;;6125914;23;19928;-70
2023/06/06 03:24:29;;;;;;;;;;;10.60;99.90;;;;;;6124629;23;19991;-70
2023/06/06 03:26:55;;;;;;;;;;;10.70;99.90;;;;;;6122709;23;19963;-70
2023/06/06 03:29:21;;;;;;;;;;;10.70;99.90;;;;;;6126467;23;19931;-70
2023/06/06 03:31:49;;;;;;;;;;;10.70;99.90;;;;;;6124573;23;19948;-70
2023/06/06 03:34:14;;;;;;;;;;;10.70;99.90;;;;;;6123240;23;19921;-70
2023/06/06 03:36:40;;;;;;;;;;;10.80;99.90;;;;;;6126257;23;20003;-70
2023/06/06 03:39:06;;;;;;;;;;;10.80;99.90;;;;;;6126150;23;19943;-70
2023/06/06 03:41:31;;;;;;;;;;;10.80;99.90;;;;;;6123603;23;19940;-70
2023/06/06 03:44:00;;;;;;;;;;;10.80;99.90;;;;;;6126070;23;19987;-71
2023/06/06 03:46:26;;;;;;;;;;;10.90;99.90;;;;;;6125888;23;19927;-70
2023/06/06 03:48:51;;;;;;;;;;;12.50;99.90;;;;;;6123154;23;19960;-70
2023/06/06 03:51:17;;;;;;;;;;;10.90;99.90;;;;;;6124311;23;19921;-70
2023/06/06 03:53:42;;;;;;;;;;;11.00;99.90;;;;;;6126187;23;19921;-70
2023/06/06 03:56:08;;;;;;;;;;;11.00;99.90;;;;;;6123206;23;19921;-71
2023/06/06 03:58:37;;;;;;;;;;;11.10;99.90;;;;;;6124401;23;19960;-70
2023/06/06 04:01:02;;;;;;;;;;;11.10;99.90;;;;;;6123778;23;20007;-71
2023/06/06 04:03:35;;;;;;;;;;;11.20;99.90;;;;;;6123492;23;19948;-71
2023/06/06 04:06:02;;;;;;;;;;;11.20;99.90;;;;;;6125577;23;20342;-71
2023/06/06 04:08:28;;;;;;;;;;;11.30;99.90;;;;;;6123517;23;19927;-71
2023/06/06 04:10:53;;;;;;;;;;;11.30;99.90;;;;;;6123987;23;19991;-70
2023/06/06 04:13:22;;;;;;;;;;;11.40;99.90;;;;;;6124399;23;19924;-71
2023/06/06 04:15:48;;;;;;;;;;;11.40;99.90;;;;;;6122784;23;20055;-71
2023/06/06 04:18:13;;;;;;;;;;;11.40;99.90;;;;;;6125794;23;19921;-70
2023/06/06 04:20:39;;;;;;;;;;;11.50;99.90;;;;;;6124395;23;19928;-71
2023/06/06 04:23:05;;;;;;;;;;;11.50;99.90;;;;;;6124890;23;19960;-71
2023/06/06 04:25:30;;;;;;;;;;;12.50;99.90;;;;;;6124594;23;19921;-71
2023/06/06 04:27:56;;;;;;;;;;;11.60;99.90;;;;;;6125215;23;19928;-71
2023/06/06 04:30:24;;;;;;;;;;;11.60;99.90;;;;;;6123303;23;19931;-71
2023/06/06 04:32:53;;;;;;;;;;;11.70;99.90;;;;;;6123945;23;19999;-71
2023/06/06 04:35:19;;;;;;;;;;;11.80;99.90;;;;;;6124406;23;20226;-71
2023/06/06 04:37:47;;;;;;;;;;;11.80;99.90;;;;;;6124707;23;19921;-71
2023/06/06 04:40:13;;;;;;;;;;;12.10;99.90;;;;;;6126061;23;19921;-70
2023/06/06 04:42:39;;;;;;;;;;;11.90;99.90;;;;;;6125939;23;19993;-72
2023/06/06 04:45:06;;;;;;;;;;;12.00;99.90;;;;;;6122515;23;19921;-69
2023/06/06 04:47:32;;;;;;;;;;;12.10;99.90;;;;;;6125667;23;19979;-69
2023/06/06 04:49:58;;;;;;;;;;;12.10;99.90;;;;;;6127583;23;20255;-70
2023/06/06 04:52:24;;;;;;;;;;;12.30;99.90;;;;;;6126781;23;19943;-72
2023/06/06 04:54:51;;;;;;;;;;;12.20;99.90;;;;;;6125672;23;20231;-70
2023/06/06 04:57:16;;;;;;;;;;;12.20;99.90;;;;;;6127232;23;19944;-70
2023/06/06 04:59:50;;;;;;;;;;;12.30;99.90;;;;;;6124885;23;20661;-71
2023/06/06 05:02:17;;;;;;;;;;;12.30;99.90;;;;;;6127594;23;19975;-71
2023/06/06 05:04:42;;;;;;;;;;;12.30;99.90;;;;;;6124502;23;19921;-71
2023/06/06 05:07:08;;;;;;;;;;;12.30;99.90;;;;;;6125213;23;19927;-72
2023/06/06 05:09:34;;;;;;;;;;;12.20;99.90;;;;;;6127412;23;19925;-72
2023/06/06 05:12:00;;;;;;;;;;;12.30;99.90;;;;;;6119997;23;19975;-77
2023/06/06 05:14:25;;;;;;;;;;;12.40;99.90;;;;;;6126424;23;20341;-75
2023/06/06 05:16:52;;;;;;;;;;;12.50;99.90;;;;;;6124736;23;20690;-78
2023/06/06 05:19:18;;;;;;;;;;;12.50;99.90;;;;;;6125780;23;20439;-79
2023/06/06 05:21:44;;;;;;;;;;;12.90;99.90;;;;;;6125450;23;19964;-79
2023/06/06 05:24:09;;;;;;;;;;;12.70;99.90;;;;;;6125853;23;19921;-75
2023/06/06 05:26:35;;;;;;;;;;;12.70;99.90;;;;;;6124696;23;19921;-76
2023/06/06 05:29:01;;;;;;;;;;;12.60;99.90;;;;;;6124035;23;19931;-77
2023/06/06 05:31:26;;;;;;;;;;;12.60;99.90;;;;;;6125652;23;19921;-75
2023/06/06 05:33:53;;;;;;;;;;;12.60;99.90;;;;;;6124620;23;19921;-81
2023/06/06 05:36:19;;;;;;;;;;;12.60;99.90;;;;;;6124335;23;19951;-75
2023/06/06 05:38:44;;;;;;;;;;;12.50;99.90;;;;;;6124819;23;19996;-75
2023/06/06 05:41:10;;;;;;;;;;;12.50;99.90;;;;;;6123745;23;19921;-75
2023/06/06 05:43:35;;;;;;;;;;;12.50;99.90;;;;;;6125089;23;20356;-75
2023/06/06 05:46:01;;;;;;;;;;;12.50;99.90;;;;;;6124452;23;19924;-75
2023/06/06 05:48:31;;;;;;;;;;;12.60;99.90;;;;;;6123510;23;19921;-76
2023/06/06 05:50:57;;;;;;;;;;;12.70;99.90;;;;;;6124445;23;19924;-76
2023/06/06 05:53:23;;;;;;;;;;;12.70;99.90;;;;;;6125573;23;19921;-75
2023/06/06 05:55:49;;;;;;;;;;;12.60;99.90;;;;;;6125694;23;20338;-76
2023/06/06 05:58:15;;;;;;;;;;;12.80;99.90;;;;;;6124691;23;19920;-75
2023/06/06 06:00:41;;;;;;;;;;;12.80;99.90;;;;;;6127033;23;20341;-76
2023/06/06 06:03:07;;;;;;;;;;;12.90;99.90;;;;;;6123831;23;19976;-75
2023/06/06 06:05:32;;;;;;;;;;;13.00;99.90;;;;;;6125605;23;19921;-75
2023/06/06 06:07:59;;;;;;;;;;;13.10;99.90;;;;;;6126200;23;19921;-73
2023/06/06 06:10:25;;;;;;;;;;;12.80;99.90;;;;;;6125592;23;19921;-74
2023/06/06 06:12:51;;;;;;;;;;;13.10;99.90;;;;;;6124562;23;19921;-74
2023/06/06 06:15:20;;;;;;;;;;;13.20;99.90;;;;;;6125261;23;19921;-73
2023/06/06 06:17:48;;;;;;;;;;;13.10;99.90;;;;;;6128508;23;19920;-73
2023/06/06 06:20:17;;;;;;;;;;;13.20;99.90;;;;;;6126214;23;19956;-73
2023/06/06 06:22:46;;;;;;;;;;;13.30;99.90;;;;;;6127267;23;19921;-73
2023/06/06 06:25:16;;;;;;;;;;;13.20;99.90;;;;;;6128727;23;19925;-74
2023/06/06 06:27:45;;;;;;;;;;;13.20;99.90;;;;;;6127622;23;19928;-80
2023/06/06 06:30:11;;;;;;;;;;;13.70;99.90;;;;;;6127181;23;19921;-77
2023/06/06 06:32:38;;;;;;;;;;;13.30;99.90;;;;;;6127732;23;20297;-75
2023/06/06 06:35:04;;;;;;;;;;;13.20;99.90;;;;;;6124868;23;19957;-74
2023/06/06 06:37:30;;;;;;;;;;;13.20;99.90;;;;;;6125027;23;19972;-74
2023/06/06 06:39:58;;;;;;;;;;;13.30;99.90;;;;;;6126355;23;19938;-75
2023/06/06 06:42:24;;;;;;;;;;;13.40;99.90;;;;;;6124867;23;19916;-75
2023/06/06 06:44:50;;;;;;;;;;;13.60;99.90;;;;;;6125253;23;19992;-75
2023/06/06 06:47:19;;;;;;;;;;;13.70;99.90;;;;;;6125169;23;20354;-74
2023/06/06 06:49:45;;;;;;;;;;;13.70;99.90;;;;;;6125073;23;19921;-73
2023/06/06 06:52:11;;;;;;;;;;;13.80;99.90;;;;;;6125350;23;19929;-73
2023/06/06 06:54:44;;;;;;;;;;;14.30;99.90;;;;;;6124829;23;19921;-73
2023/06/06 06:57:09;;;;;;;;;;;13.90;99.90;;;;;;6123793;23;19943;-73
2023/06/06 06:59:35;;;;;;;;;;;13.90;99.90;;;;;;6124857;23;20335;-73
2023/06/06 07:02:06;;;;;;;;;;;14.00;99.90;;;;;;6124559;23;19965;-74
2023/06/06 07:04:32;;;;;;;;;;;14.00;99.90;;;;;;6125559;23;19995;-74
2023/06/06 07:06:57;;;;;;;;;;;14.10;99.90;;;;;;6126330;23;19921;-74
2023/06/06 07:09:23;;;;;;;;;;;14.20;99.90;;;;;;6123825;23;19917;-73
2023/06/06 07:11:48;;;;;;;;;;;14.30;99.90;;;;;;6123461;23;19960;-72
2023/06/06 07:14:14;;;;;;;;;;;14.50;99.90;;;;;;6126571;23;19959;-73
2023/06/06 07:16:39;;;;;;;;;;;14.60;99.90;;;;;;6126850;23;19921;-74
2023/06/06 07:19:05;;;;;;;;;;;14.70;99.90;;;;;;6123106;23;19921;-74
2023/06/06 07:21:36;;;;;;;;;;;15.20;99.90;;;;;;6124971;23;19921;-74
2023/06/06 07:24:02;;;;;;;;;;;16.00;99.90;;;;;;6124422;23;20337;-74
2023/06/06 07:26:28;;;;;;;;;;;16.70;99.90;;;;;;6125727;23;20003;-74
2023/06/06 07:28:56;;;;;;;;;;;17.00;99.90;;;;;;6125606;23;19928;-74
2023/06/06 07:31:21;;;;;;;;;;;17.50;99.90;;;;;;6124518;23;19924;-74
2023/06/06 07:33:48;;;;;;;;;;;18.00;99.90;;;;;;6123848;23;20012;-74
2023/06/06 07:36:13;;;;;;;;;;;18.30;99.90;;;;;;6124764;23;19948;-75
2023/06/06 07:38:39;;;;;;;;;;;18.80;99.90;;;;;;6120417;23;19971;-74
2023/06/06 07:41:04;;;;;;;;;;;19.00;99.90;;;;;;6121188;23;19921;-74
2023/06/06 07:43:31;;;;;;;;;;;19.10;99.80;;;;;;6125357;23;19948;-74
2023/06/06 07:45:56;;;;;;;;;;;19.30;99.90;;;;;;6122851;23;19928;-75
2023/06/06 07:48:22;;;;;;;;;;;19.60;99.00;;;;;;6122958;23;19921;-74
2023/06/06 07:50:47;;;;;;;;;;;20.00;98.90;;;;;;6123144;23;19925;-74
2023/06/06 07:53:13;;;;;;;;;;;20.20;98.40;;;;;;6125337;23;20230;-74
2023/06/06 07:55:38;;;;;;;;;;;20.20;96.80;;;;;;6122841;23;20326;-74
2023/06/06 07:58:10;;;;;;;;;;;20.20;97.70;;;;;;6123056;23;20274;-75
2023/06/06 08:00:36;;;;;;;;;;;20.60;97.40;;;;;;6122481;23;19928;-74
2023/06/06 08:03:01;;;;;;;;;;;20.80;97.00;;;;;;6125057;23;19921;-75
2023/06/06 08:05:27;;;;;;;;;;;21.00;96.80;;;;;;6125707;23;19925;-75
2023/06/06 08:07:55;;;;;;;;;;;20.90;96.30;;;;;;6122122;23;19925;-73
2023/06/06 08:10:20;;;;;;;;;;;21.00;96.30;;;;;;6125600;23;19917;-72
2023/06/06 08:12:46;;;;;;;;;;;21.20;95.80;;;;;;6123442;23;19968;-72
2023/06/06 08:15:12;;;;;;;;;;;21.50;96.50;;;;;;6122352;23;19925;-73
2023/06/06 08:17:37;;;;;;;;;;;21.90;95.30;;;;;;6123328;23;20448;-72
2023/06/06 08:20:08;;;;;;;;;;;22.00;94.40;;;;;;6125074;23;19921;-72
2023/06/06 08:22:37;;;;;;;;;;;22.30;94.80;;;;;;6126455;23;19975;-72
2023/06/06 08:25:04;;;;;;;;;;;22.40;94.50;;;;;;6125185;23;19921;-73
2023/06/06 08:27:30;;;;;;;;;;;22.80;94.30;;;;;;6125521;23;19928;-72
2023/06/06 08:29:56;;;;;;;;;;;22.90;93.40;;;;;;6125843;23;20345;-72
2023/06/06 08:32:22;;;;;;;;;;;23.20;94.40;;;;;;6125589;23;19948;-73
2023/06/06 08:34:47;;;;;;;;;;;23.50;93.60;;;;;;6127030;23;19959;-72
2023/06/06 08:37:17;;;;;;;;;;;22.90;93.10;;;;;;6125977;23;19921;-73
2023/06/06 08:39:44;;;;;;;;;;;22.70;93.90;;;;;;6127096;23;19921;-71
2023/06/06 08:42:11;;;;;;;;;;;22.80;94.40;;;;;;6127885;23;19941;-72
2023/06/06 08:44:41;;;;;;;;;;;23.00;94.30;;;;;;6127177;23;19927;-70
2023/06/06 08:47:08;;;;;;;;;;;23.20;93.80;;;;;;6130473;23;19921;-75
2023/06/06 08:49:37;;;;;;;;;;;23.40;93.50;;;;;;6130123;23;19928;-74
2023/06/06 08:52:05;;;;;;;;;;;23.60;92.80;;;;;;6130518;23;20253;-76
2023/06/06 08:54:31;;;;;;;;;;;23.70;92.70;;;;;;6130876;23;19920;-80
2023/06/06 08:56:57;;;;;;;;;;;23.20;92.50;;;;;;6129391;23;19929;-80
2023/06/06 08:59:23;;;;;;;;;;;22.90;92.90;;;;;;6157465;23;20004;-77
2023/06/06 09:01:50;;;;;;;;;;;22.50;93.10;;;;;;6157338;23;19917;-79
2023/06/06 09:04:16;;;;;;;;;;;22.20;93.50;;;;;;6157011;23;19995;-81
2023/06/06 09:06:44;;;;;;;;;;;21.60;93.80;;;;;;6130555;23;19931;-78
2023/06/06 09:09:10;;;;;;;;;;;21.70;94.90;;;;;;6157281;23;19963;-79
2023/06/06 09:11:36;;;;;;;;;;;22.10;94.70;;;;;;6129672;23;19924;-80
2023/06/06 09:14:01;;;;;;;;;;;22.60;94.60;;;;;;6130393;23;19925;-80
2023/06/06 09:16:28;;;;;;;;;;;23.00;94.20;;;;;;6156920;23;19916;-80
2023/06/06 09:18:56;;;;;;;;;;;23.40;94.30;;;;;;6155639;23;20329;-78
2023/06/06 09:21:22;;;;;;;;;;;24.10;93.80;;;;;;6130811;23;19943;-76
2023/06/06 09:23:52;;;;;;;;;;;24.20;93.10;;;;;;6126405;23;20004;-76
2023/06/06 09:26:19;;;;;;;;;;;24.40;91.10;;;;;;6130065;23;19920;-76
2023/06/06 09:28:44;;;;;;;;;;;24.70;91.40;;;;;;6127190;23;19924;-72
2023/06/06 09:31:26;;;;;;;;;;;24.70;91.20;;;;;;6129157;23;19921;-73
2023/06/06 09:33:55;;;;;;;;;;;24.60;91.90;;;;;;6155978;23;19916;-75
2023/06/06 09:36:24;;;;;;;;;;;24.20;91.20;;;;;;6157284;23;19921;-74
2023/06/06 09:38:51;;;;;;;;;;;23.90;91.90;;;;;;6155251;23;19920;-74
2023/06/06 09:41:17;;;;;;;;;;;24.20;92.50;;;;;;6157729;23;19928;-76
2023/06/06 09:43:42;;;;;;;;;;;24.20;91.10;;;;;;6129889;23;19920;-73
2023/06/06 09:46:08;;;;;;;;;;;24.20;91.90;;;;;;6138829;23;20028;-72
2023/06/06 09:48:36;;;;;;;;;;;24.30;91.10;;;;;;6124410;23;19971;-72
2023/06/06 09:51:02;;;;;;;;;;;24.20;91.00;;;;;;6124541;23;20393;-73
2023/06/06 09:53:28;;;;;;;;;;;23.90;91.50;;;;;;6126050;23;19924;-76
2023/06/06 09:55:56;;;;;;;;;;;24.10;91.20;;;;;;6125293;23;19975;-74
2023/06/06 09:58:22;;;;;;;;;;;24.00;91.20;;;;;;6125121;23;20421;-74
2023/06/06 10:00:52;;;;;;;;;;;23.70;91.40;;;;;;6125632;23;19956;-76
2023/06/06 10:03:18;;;;;;;;;;;23.60;91.60;;;;;;6125008;23;20334;-74
2023/06/06 10:05:48;;;;;;;;;;;23.10;92.00;;;;;;6124597;23;19927;-74
2023/06/06 10:08:14;;;;;;;;;;;23.10;91.90;;;;;;6124086;23;19995;-71
2023/06/06 10:10:46;;;;;;;;;;;23.10;91.40;;;;;;6126236;23;19931;-73
2023/06/06 10:13:12;;;;;;;;;;;23.10;91.80;;;;;;6126275;23;19931;-74
2023/06/06 10:15:38;;;;;;;;;;;23.30;92.30;;;;;;6125275;23;19928;-73
2023/06/06 10:18:04;;;;;;;;;;;23.30;92.30;;;;;;6126138;23;19920;-74
2023/06/06 10:20:32;;;;;;;;;;;23.70;92.90;;;;;;6127246;23;19925;-73
2023/06/06 10:23:00;;;;;;;;;;;23.80;92.10;;;;;;6126142;23;20294;-74
2023/06/06 10:25:26;;;;;;;;;;;24.00;91.60;;;;;;6126434;23;19925;-72
2023/06/06 10:28:01;;;;;;;;;;;23.70;92.60;;;;;;6124129;23;19972;-77
2023/06/06 10:30:42;;;;;;;;;;;23.60;91.80;;;;;;6126429;23;19967;-78
2023/06/06 10:33:17;;;;;;;;;;;23.40;91.80;;;;;;6123117;23;20368;-76
2023/06/06 10:35:46;;;;;;;;;;;23.50;91.80;;;;;;6124702;23;19932;-76
2023/06/06 10:38:15;;;;;;;;;;;23.40;92.50;;;;;;6124953;23;19925;-77
2023/06/06 10:41:04;;;;;;;;;;;23.30;91.90;;;;;;6126981;23;19968;-77
2023/06/06 10:43:41;;;;;;;;;;;23.30;91.70;;;;;;6114779;23;19947;-75
2023/06/06 10:46:06;;;;;;;;;;;23.30;92.10;;;;;;6124360;23;19921;-73
2023/06/06 10:48:42;;;;;;;;;;;23.10;92.20;;;;;;6124965;23;19967;-73
2023/06/06 10:51:24;;;;;;;;;;;23.10;92.20;;;;;;6124007;23;19927;-72
2023/06/06 10:54:08;;;;;;;;;;;23.30;92.20;;;;;;6124508;23;20385;-77
2023/06/06 10:56:34;;;;;;;;;;;22.90;91.80;;;;;;6124113;23;19921;-74
2023/06/06 10:59:00;;;;;;;;;;;22.90;91.90;;;;;;6122814;23;19944;-71
2023/06/06 11:01:28;;;;;;;;;;;23.10;92.80;;;;;;6124549;23;20317;-72
2023/06/06 11:03:53;;;;;;;;;;;23.10;93.20;;;;;;6123126;23;19921;-72
2023/06/06 11:06:19;;;;;;;;;;;23.50;92.60;;;;;;6123957;23;20051;-72
2023/06/06 11:08:46;;;;;;;;;;;23.20;92.10;;;;;;6125984;23;19921;-72
2023/06/06 11:11:14;;;;;;;;;;;23.30;92.40;;;;;;6124461;23;20295;-72
2023/06/06 11:13:59;;;;;;;;;;;23.40;92.20;;;;;;6122625;23;19925;-73
2023/06/06 11:16:43;;;;;;;;;;;23.10;92.40;;;;;;6123366;23;19921;-73
2023/06/06 11:19:11;;;;;;;;;;;23.10;91.50;;;;;;6122370;23;19927;-74
2023/06/06 11:21:39;;;;;;;;;;;23.20;92.40;;;;;;6125821;23;19945;-74
2023/06/06 11:24:08;;;;;;;;;;;23.00;92.60;;;;;;6123795;23;20341;-74
2023/06/06 11:26:34;;;;;;;;;;;23.00;92.80;;;;;;6123257;23;20250;-73
2023/06/06 11:29:00;;;;;;;;;;;22.90;92.80;;;;;;6122987;23;20385;-74
2023/06/06 11:31:26;;;;;;;;;;;23.00;93.00;;;;;;6122400;23;19984;-75
2023/06/06 11:33:52;;;;;;;;;;;22.70;93.30;;;;;;6123169;23;19960;-71
2023/06/06 11:36:19;;;;;;;;;;;22.80;93.20;;;;;;6123783;23;19921;-73
2023/06/06 11:38:44;;;;;;;;;;;23.00;92.50;;;;;;6122912;23;20242;-71
2023/06/06 11:41:10;;;;;;;;;;;22.90;93.10;;;;;;6125228;23;19921;-70
2023/06/06 11:43:35;;;;;;;;;;;22.60;92.80;;;;;;6124171;23;20318;-71
2023/06/06 11:46:05;;;;;;;;;;;22.20;92.80;;;;;;6124180;23;20338;-70
2023/06/06 11:48:30;;;;;;;;;;;21.90;93.70;;;;;;6121424;23;20334;-71
2023/06/06 11:50:56;;;;;;;;;;;22.30;93.90;;;;;;6123488;23;19976;-70
2023/06/06 11:53:30;;;;;;;;;;;22.40;93.20;;;;;;6125048;23;20338;-71
2023/06/06 11:55:56;;;;;;;;;;;22.20;93.20;;;;;;6114250;23;19951;-72
2023/06/06 11:58:23;;;;;;;;;;;22.10;93.50;;;;;;6124069;23;20334;-74
2023/06/06 12:00:49;;;;;;;;;;;22.20;93.10;;;;;;6121740;23;19921;-73
2023/06/06 12:03:15;;;;;;;;;;;22.30;92.90;;;;;;6125142;23;19968;-72
2023/06/06 12:05:41;;;;;;;;;;;22.30;93.90;;;;;;6122976;23;20025;-73
2023/06/06 12:08:07;;;;;;;;;;;22.40;94.00;;;;;;6117881;23;19925;-71
2023/06/06 12:10:33;;;;;;;;;;;22.30;93.00;;;;;;6125001;23;20385;-75
2023/06/06 12:12:59;;;;;;;;;;;22.20;93.70;;;;;;6120490;23;19921;-72
2023/06/06 12:15:43;;;;;;;;;;;22.00;93.70;;;;;;6123360;23;19928;-72
2023/06/06 12:18:08;;;;;;;;;;;22.00;93.50;;;;;;6122162;23;20023;-74
2023/06/06 12:20:34;;;;;;;;;;;21.70;93.50;;;;;;6121628;23;20258;-73
2023/06/06 12:23:00;;;;;;;;;;;21.90;94.00;;;;;;6121845;23;20299;-72
2023/06/06 12:25:26;;;;;;;;;;;21.90;93.20;;;;;;6122279;23;19928;-72
2023/06/06 12:27:53;;;;;;;;;;;22.10;93.40;;;;;;6121108;23;20024;-73
2023/06/06 12:30:28;;;;;;;;;;;21.90;94.20;;;;;;6117469;23;19921;-75
2023/06/06 12:32:53;;;;;;;;;;;22.00;93.10;;;;;;6123695;23;19963;-72
2023/06/06 12:35:21;;;;;;;;;;;22.00;93.70;;;;;;6123257;23;19921;-74
2023/06/06 12:37:46;;;;;;;;;;;21.60;93.20;;;;;;6123865;23;19968;-81
2023/06/06 12:40:16;;;;;;;;;;;21.60;93.10;;;;;;6104917;23;19924;-74
2023/06/06 12:42:42;;;;;;;;;;;21.50;93.10;;;;;;6121834;23;19921;-74
2023/06/06 12:45:08;;;;;;;;;;;21.40;94.30;;;;;;6121987;23;19932;-75
2023/06/06 12:47:34;;;;;;;;;;;21.50;93.60;;;;;;6116328;23;20353;-75
2023/06/06 12:50:00;;;;;;;;;;;21.50;94.10;;;;;;6120204;23;19953;-73
2023/06/06 12:52:29;;;;;;;;;;;21.30;94.40;;;;;;6124201;23;20008;-75
2023/06/06 12:54:54;;;;;;;;;;;21.40;94.00;;;;;;6122244;23;20349;-75
2023/06/06 12:57:21;;;;;;;;;;;21.30;94.00;;;;;;6121729;23;19917;-78
2023/06/06 13:00:24;;;;;;;;;;;21.30;94.30;;;;;;6122196;23;20305;-76
2023/06/06 13:02:53;;;;;;;;;;;21.50;94.20;;;;;;6121165;23;19921;-72
2023/06/06 13:08:29;;;;;;;;;;;21.50;93.80;;;;;;6097587;23;20226;-78
2023/06/06 13:10:54;;;;;;;;;;;21.40;93.90;;;;;;6091157;23;19928;-76
2023/06/06 13:13:23;;;;;;;;;;;21.30;93.80;;;;;;6096028;23;20377;-75
2023/06/06 13:15:52;;;;;;;;;;;21.30;94.70;;;;;;6124212;23;19921;-75
2023/06/06 13:18:17;;;;;;;;;;;21.60;93.50;;;;;;6098400;23;20006;-75
2023/06/06 13:20:43;;;;;;;;;;;21.40;93.40;;;;;;6099118;23;19921;-71
2023/06/06 13:23:09;;;;;;;;;;;21.70;94.40;;;;;;6124697;23;19972;-74
2023/06/06 13:28:19;;;;;;;;;;;21.60;93.80;;;;;;6111689;23;19936;-76
2023/06/06 13:30:57;;;;;;;;;;;21.10;94.00;;;;;;6122984;23;19921;-74
2023/06/06 13:36:59;;;;;;;;;;;21.30;93.90;;;;;;6147833;23;19921;-72
2023/06/06 13:43:35;;;;;;;;;;;21.20;94.30;;;;;;6114210;23;19944;-73
2023/06/06 13:46:02;;;;;;;;;;;21.30;94.40;;;;;;6143249;23;19979;-76
2023/06/06 13:48:28;;;;;;;;;;;21.10;93.60;;;;;;6153582;23;19921;-75
2023/06/06 13:51:24;;;;;;;;;;;21.10;93.80;;;;;;6133203;23;20361;-77
2023/06/06 13:53:52;;;;;;;;;;;20.90;93.90;;;;;;6069969;23;20381;-76
2023/06/06 13:56:22;;;;;;;;;;;20.80;94.50;;;;;;6094767;23;19917;-74
2023/06/06 13:58:53;;;;;;;;;;;20.60;95.10;;;;;;6094269;23;20242;-73
2023/06/06 14:01:19;;;;;;;;;;;20.60;94.90;;;;;;6093676;23;19926;-75
2023/06/06 14:03:48;;;;;;;;;;;20.70;94.80;;;;;;6090830;23;19941;-73
2023/06/06 14:06:39;;;;;;;;;;;20.50;95.00;;;;;;6126415;23;20058;-74
2023/06/06 14:09:14;;;;;;;;;;;20.70;95.10;;;;;;6103653;23;20000;-72
2023/06/06 14:12:04;;;;;;;;;;;20.60;95.00;;;;;;6052280;23;19924;-76
2023/06/06 14:14:48;;;;;;;;;;;21.00;95.00;;;;;;6098363;23;20000;-74
2023/06/06 14:17:13;;;;;;;;;;;20.60;94.60;;;;;;6093312;23;19972;-76
2023/06/06 14:19:51;;;;;;;;;;;20.50;94.30;;;;;;6096919;23;19921;-75
2023/06/06 14:22:33;;;;;;;;;;;20.40;94.90;;;;;;6092455;23;20330;-74
2023/06/06 14:25:02;;;;;;;;;;;20.30;94.50;;;;;;6093308;23;19988;-75
2023/06/06 14:27:28;;;;;;;;;;;20.20;94.80;;;;;;6092569;23;19984;-73
2023/06/06 14:30:00;;;;;;;;;;;20.00;94.60;;;;;;6118367;23;20327;-78
2023/06/06 14:32:30;;;;;;;;;;;20.20;95.30;;;;;;6094689;23;19921;-74
2023/06/06 14:34:57;;;;;;;;;;;20.30;94.70;;;;;;6095041;23;20338;-72